createdAt,value
2018-10-12T00:02:21.853Z,90.16
2018-10-12T00:04:52.073Z,92.34
2018-10-12T00:07:21.999Z,96.21
2018-10-12T00:09:52.005Z,96.29
2018-10-12T00:12:21.852Z,93.92
2018-10-12T00:14:51.745Z,92.59
2018-10-12T00:17:21.442Z,93.55
2018-10-12T00:19:51.353Z,89.36
2018-10-12T00:22:21.108Z,91.46
2018-10-12T00:24:51.573Z,93.69
2018-10-12T00:27:21.360Z,93.57
2018-10-12T00:29:51.075Z,94.01
2018-10-12T00:32:20.745Z,93.57
2018-10-12T00:34:50.382Z,89.83
2018-10-12T00:37:20.038Z,90.32
2018-10-12T00:39:49.716Z,84.95
2018-10-12T00:42:19.189Z,84.46
2018-10-12T00:44:48.625Z,83.00
2018-10-12T00:47:18.210Z,82.89
2018-10-12T00:49:47.708Z,83.63
2018-10-12T00:52:17.016Z,84.32
2018-10-12T00:54:46.378Z,84.13
2018-10-12T00:57:15.812Z,83.49
2018-10-12T00:59:45.227Z,79.41
2018-10-12T01:02:14.548Z,79.68
2018-10-12T01:04:43.863Z,79.74
2018-10-12T01:07:13.755Z,81.13
2018-10-12T01:09:43.381Z,81.11
2018-10-12T01:12:35.448Z,82.06
2018-10-12T01:15:05.211Z,81.16
2018-10-12T01:17:35.217Z,81.44
2018-10-12T01:20:05.529Z,82.54
2018-10-12T01:22:35.118Z,83.12
2018-10-12T01:25:06.409Z,84.40
2018-10-12T01:27:35.776Z,84.75
2018-10-12T01:30:06.100Z,85.67
2018-10-12T01:32:40.589Z,86.03
2018-10-12T01:35:10.276Z,86.85
2018-10-12T01:37:39.794Z,86.89
2018-10-12T01:40:09.056Z,87.81
2018-10-12T01:42:38.394Z,88.72
2018-10-12T01:45:07.746Z,89.32
2018-10-12T01:47:37.171Z,90.94
2018-10-12T01:50:06.458Z,90.72
2018-10-12T01:52:35.766Z,92.21
2018-10-12T01:55:05.058Z,92.84
2018-10-12T01:57:34.371Z,93.99
2018-10-12T02:00:03.774Z,93.40
2018-10-12T02:02:33.102Z,93.90
2018-10-12T02:05:02.370Z,95.04
2018-10-12T02:07:31.730Z,95.29
2018-10-12T02:10:01.116Z,95.66
2018-10-12T02:12:30.545Z,96.03
2018-10-12T02:14:59.943Z,96.92
2018-10-12T02:17:29.387Z,96.65
2018-10-12T02:19:58.781Z,94.45
2018-10-12T02:22:28.176Z,95.57
2018-10-12T02:24:57.758Z,95.89
2018-10-12T02:27:27.248Z,96.11
2018-10-12T02:29:56.850Z,96.06
2018-10-12T02:32:26.339Z,96.34
2018-10-12T02:34:55.998Z,96.98
2018-10-12T02:37:25.493Z,97.26
2018-10-12T02:39:55.269Z,97.87
2018-10-12T02:42:24.777Z,98.40
2018-10-12T02:44:54.734Z,99.28
2018-10-12T02:47:24.335Z,99.00
2018-10-12T02:49:54.157Z,99.29
2018-10-12T02:52:23.997Z,98.90
2018-10-12T02:54:53.656Z,99.65
2018-10-12T02:57:23.230Z,98.28
2018-10-12T02:59:53.114Z,97.15
2018-10-12T03:02:22.949Z,97.06
2018-10-12T03:04:52.746Z,97.08
2018-10-12T03:07:22.778Z,97.71
2018-10-12T03:09:52.493Z,98.22
2018-10-12T03:12:22.214Z,97.29
2018-10-12T03:14:52.162Z,96.54
2018-10-12T03:17:21.877Z,96.67
2018-10-12T03:19:51.509Z,96.62
2018-10-12T03:22:21.350Z,96.61
2018-10-12T03:24:51.063Z,97.40
2018-10-12T03:27:20.636Z,98.32
2018-10-12T03:29:50.201Z,98.73
2018-10-12T03:32:19.785Z,98.92
2018-10-12T03:34:49.351Z,98.88
2018-10-12T03:37:18.997Z,99.95
2018-10-12T03:39:48.463Z,99.40
2018-10-12T03:42:17.756Z,99.25
2018-10-12T03:44:47.066Z,98.64
2018-10-12T03:47:16.420Z,98.18
2018-10-12T03:49:46.750Z,96.32
2018-10-12T03:52:17.075Z,94.62
2018-10-12T03:54:46.567Z,93.89
2018-10-12T03:57:17.134Z,94.67
2018-10-12T03:59:46.463Z,94.68
2018-10-12T04:02:15.720Z,95.84
2018-10-12T04:04:45.012Z,96.51
2018-10-12T04:07:14.369Z,97.23
2018-10-12T04:09:43.804Z,97.68
2018-10-12T04:12:13.228Z,97.51
2018-10-12T04:14:42.663Z,97.57
2018-10-12T04:17:11.946Z,98.26
2018-10-12T04:19:41.403Z,98.26
2018-10-12T04:22:10.902Z,99.00
2018-10-12T04:24:40.386Z,99.51
2018-10-12T04:27:09.759Z,100.00
2018-10-12T04:29:39.060Z,100.00
2018-10-12T04:32:08.449Z,99.32
2018-10-12T04:34:37.731Z,96.45
2018-10-12T04:37:07.260Z,94.93
2018-10-12T04:41:55.290Z,94.33
2018-10-12T04:44:24.788Z,98.09
2018-10-12T04:46:54.259Z,100.00
2018-10-12T04:49:23.856Z,100.00
2018-10-12T04:51:56.897Z,99.54
2018-10-12T04:54:26.839Z,99.34
2018-10-12T04:56:56.321Z,100.00
2018-10-12T04:59:25.846Z,100.00
2018-10-12T05:01:55.419Z,100.00
2018-10-12T05:04:25.079Z,99.77
2018-10-12T05:06:54.662Z,100.00
2018-10-12T05:09:24.952Z,100.00
2018-10-12T05:11:54.590Z,99.01
2018-10-12T05:14:24.038Z,98.32
2018-10-12T05:16:53.868Z,98.18
2018-10-12T05:19:23.104Z,99.04
2018-10-12T05:21:53.039Z,100.00
2018-10-12T05:24:22.879Z,100.00
2018-10-12T05:26:52.757Z,100.00
2018-10-12T05:29:22.967Z,100.00
2018-10-12T05:31:52.586Z,100.00
2018-10-12T05:34:22.707Z,100.00
2018-10-12T05:36:52.363Z,100.00
2018-10-12T05:39:22.023Z,100.00
2018-10-12T05:41:51.696Z,100.00
2018-10-12T05:44:21.387Z,100.00
2018-10-12T05:46:50.931Z,100.00
2018-10-12T05:49:37.144Z,100.00
2018-10-12T05:52:06.471Z,100.00
2018-10-12T05:54:35.779Z,100.00
2018-10-12T05:57:05.347Z,100.00
2018-10-12T05:59:34.658Z,100.00
2018-10-12T06:02:04.052Z,100.00
2018-10-12T06:04:33.356Z,100.00
2018-10-12T06:07:02.882Z,100.00
2018-10-12T06:09:32.237Z,100.00
2018-10-12T06:12:01.470Z,98.39
2018-10-12T06:14:30.766Z,96.67
2018-10-12T06:17:00.148Z,99.54
2018-10-12T06:19:29.440Z,100.00
2018-10-12T06:21:58.765Z,98.82
2018-10-12T06:24:28.322Z,98.75
2018-10-12T06:26:57.746Z,98.23
2018-10-12T06:29:27.276Z,98.79
2018-10-12T06:31:56.678Z,98.10
2018-10-12T06:34:26.248Z,96.70
2018-10-12T06:36:55.894Z,96.48
2018-10-12T06:39:25.430Z,96.11
2018-10-12T06:41:55.078Z,94.15
2018-10-12T06:44:24.693Z,94.01
2018-10-12T06:46:54.255Z,94.11
2018-10-12T06:49:23.903Z,92.41
2018-10-12T06:51:53.339Z,91.40
2018-10-12T06:54:22.908Z,91.47
2018-10-12T06:56:52.426Z,89.30
2018-10-12T06:59:22.072Z,90.31
2018-10-12T07:01:51.649Z,89.51
2018-10-12T07:04:21.186Z,87.45
2018-10-12T07:06:50.830Z,87.43
2018-10-12T07:09:20.486Z,87.17
2018-10-12T07:11:49.890Z,87.71
2018-10-12T07:14:19.217Z,87.80
2018-10-12T07:16:49.049Z,83.32
2018-10-12T07:19:19.349Z,81.58
2018-10-12T07:21:48.696Z,81.89
2018-10-12T07:24:18.183Z,81.46
2018-10-12T07:26:47.522Z,81.58
2018-10-12T07:29:16.897Z,81.63
2018-10-12T07:31:46.195Z,81.85
2018-10-12T07:34:15.651Z,80.93
2018-10-12T07:36:44.989Z,79.05
2018-10-12T07:39:14.663Z,77.46
2018-10-12T07:41:43.615Z,76.94
2018-10-12T07:44:12.935Z,76.10
2018-10-12T07:46:42.346Z,76.18
2018-10-12T07:49:11.750Z,75.38
2018-10-12T07:51:41.271Z,75.54
2018-10-12T07:54:10.632Z,74.52
2018-10-12T07:56:39.934Z,73.24
2018-10-12T07:59:09.250Z,74.40
2018-10-12T08:01:38.514Z,75.51
2018-10-12T08:04:07.864Z,73.29
2018-10-12T08:06:37.242Z,72.29
2018-10-12T08:09:08.558Z,71.22
2018-10-12T08:11:38.291Z,69.98
2018-10-12T08:14:07.709Z,68.46
2018-10-12T08:16:36.978Z,68.27
2018-10-12T08:19:06.760Z,67.00
2018-10-12T08:21:36.030Z,66.29
2018-10-12T08:24:05.312Z,65.77
2018-10-12T08:26:34.565Z,65.06
2018-10-12T08:29:03.927Z,64.33
2018-10-12T08:31:33.383Z,63.72
2018-10-12T08:34:02.635Z,64.13
2018-10-12T08:36:32.013Z,63.62
2018-10-12T08:39:01.214Z,63.75
2018-10-12T08:41:30.474Z,62.35
2018-10-12T08:43:59.803Z,62.39
2018-10-12T08:46:29.213Z,61.98
2018-10-12T08:48:58.512Z,61.61
2018-10-12T08:51:28.000Z,62.04
2018-10-12T08:53:57.301Z,62.02
2018-10-12T08:56:26.840Z,62.62
2018-10-12T08:58:56.324Z,63.65
2018-10-12T09:01:25.759Z,62.85
2018-10-12T09:03:55.370Z,62.19
2018-10-12T09:06:24.920Z,62.73
2018-10-12T09:08:54.607Z,62.89
2018-10-12T09:11:24.219Z,62.95
2018-10-12T09:13:53.667Z,61.83
2018-10-12T09:16:23.345Z,62.21
2018-10-12T09:18:52.832Z,61.54
2018-10-12T09:21:22.411Z,61.03
2018-10-12T09:23:52.056Z,60.47
2018-10-12T09:26:21.642Z,59.90
2018-10-12T09:28:51.079Z,59.67
2018-10-12T09:31:20.680Z,59.21
2018-10-12T09:33:50.251Z,57.59
2018-10-12T09:36:19.784Z,57.82
2018-10-12T09:38:49.189Z,57.63
2018-10-12T09:41:18.655Z,57.84
2018-10-12T09:43:48.239Z,57.20
2018-10-12T09:46:17.551Z,56.99
2018-10-12T09:48:46.918Z,56.17
2018-10-12T09:51:16.305Z,56.00
2018-10-12T09:53:45.679Z,55.89
2018-10-12T09:56:14.983Z,56.20
2018-10-12T09:58:44.517Z,55.70
2018-10-12T10:01:19.047Z,55.85
2018-10-12T10:03:53.584Z,56.02
2018-10-12T10:06:23.382Z,56.59
2018-10-12T10:08:53.068Z,55.64
2018-10-12T10:11:22.531Z,55.73
2018-10-12T10:13:52.653Z,55.67
2018-10-12T10:16:22.287Z,55.50
2018-10-12T10:18:51.931Z,54.65
2018-10-12T10:21:21.766Z,54.74
2018-10-12T10:23:51.169Z,54.89
2018-10-12T10:26:20.688Z,55.16
2018-10-12T10:28:50.646Z,54.93
2018-10-12T10:31:20.334Z,54.70
2018-10-12T10:33:49.913Z,55.15
2018-10-12T10:36:19.442Z,55.48
2018-10-12T10:38:49.107Z,55.75
2018-10-12T10:41:18.831Z,54.28
2018-10-12T10:43:48.184Z,53.77
2018-10-12T10:46:17.593Z,54.88
2018-10-12T10:48:47.128Z,54.86
2018-10-12T10:51:16.708Z,55.09
2018-10-12T10:53:46.163Z,53.82
2018-10-12T10:56:15.435Z,54.29
2018-10-12T10:58:44.737Z,53.35
2018-10-12T11:01:14.205Z,52.77
2018-10-12T11:03:43.719Z,51.31
2018-10-12T11:06:13.140Z,51.18
2018-10-12T11:08:42.747Z,51.63
2018-10-12T11:11:12.294Z,51.17
2018-10-12T11:13:41.734Z,50.41
2018-10-12T11:16:11.577Z,49.71
2018-10-12T11:18:41.208Z,50.75
2018-10-12T11:21:10.824Z,49.56
2018-10-12T11:23:40.197Z,49.78
2018-10-12T11:26:09.579Z,50.12
2018-10-12T11:28:38.915Z,49.17
2018-10-12T11:31:08.702Z,48.60
2018-10-12T11:33:37.997Z,47.53
2018-10-12T11:36:07.427Z,47.52
2018-10-12T11:38:36.803Z,48.10
2018-10-12T11:41:06.764Z,46.61
2018-10-12T11:43:37.462Z,44.71
2018-10-12T11:46:07.015Z,44.16
2018-10-12T11:48:36.316Z,43.86
2018-10-12T11:51:05.696Z,43.63
2018-10-12T11:53:35.164Z,43.81
2018-10-12T11:56:04.591Z,44.34
2018-10-12T11:58:33.927Z,43.75
2018-10-12T12:01:03.354Z,43.52
2018-10-12T12:03:33.213Z,43.49
2018-10-12T12:06:02.530Z,44.09
2018-10-12T12:08:35.012Z,43.34
2018-10-12T12:11:04.718Z,42.89
2018-10-12T12:13:34.232Z,42.99
2018-10-12T12:16:03.519Z,42.31
2018-10-12T12:18:32.824Z,42.78
2018-10-12T12:21:02.120Z,42.58
2018-10-12T12:23:31.426Z,41.89
2018-10-12T12:26:01.308Z,41.72
2018-10-12T12:28:30.603Z,42.46
2018-10-12T12:31:00.030Z,42.16
2018-10-12T12:33:29.468Z,41.94
2018-10-12T12:35:58.885Z,42.71
2018-10-12T12:38:28.058Z,41.83
2018-10-12T12:40:57.450Z,40.86
2018-10-12T12:43:26.911Z,41.34
2018-10-12T12:45:56.480Z,41.56
2018-10-12T12:48:26.312Z,42.77
2018-10-12T12:50:55.578Z,42.14
2018-10-12T12:53:25.159Z,42.89
2018-10-12T12:55:54.761Z,42.92
2018-10-12T12:58:24.616Z,41.83
2018-10-12T13:00:54.347Z,42.23
2018-10-12T13:03:23.944Z,42.70
2018-10-12T13:05:53.679Z,42.05
2018-10-12T13:08:23.499Z,42.10
2018-10-12T13:10:53.262Z,43.13
2018-10-12T13:13:22.984Z,42.37
2018-10-12T13:15:52.701Z,43.32
2018-10-12T13:18:22.277Z,43.13
2018-10-12T13:20:52.114Z,42.24
2018-10-12T13:23:21.991Z,42.69
2018-10-12T13:25:51.694Z,41.73
2018-10-12T13:28:21.963Z,41.80
2018-10-12T13:30:51.655Z,42.17
2018-10-12T13:33:21.273Z,40.67
2018-10-12T13:35:51.075Z,40.15
2018-10-12T13:38:20.675Z,40.43
2018-10-12T13:40:50.664Z,40.17
2018-10-12T13:43:20.298Z,41.82
2018-10-12T13:45:49.671Z,42.92
2018-10-12T13:48:19.533Z,42.81
2018-10-12T13:50:49.018Z,41.22
2018-10-12T13:53:18.437Z,41.97
2018-10-12T13:55:47.806Z,41.52
2018-10-12T13:58:17.410Z,41.58
2018-10-12T14:00:46.725Z,41.73
2018-10-12T14:03:16.156Z,41.49
2018-10-12T14:05:45.523Z,41.58
2018-10-12T14:08:15.092Z,41.56
2018-10-12T14:10:44.528Z,41.69
2018-10-12T14:13:13.891Z,41.63
2018-10-12T14:15:43.249Z,42.44
2018-10-12T14:18:12.795Z,42.25
2018-10-12T14:20:42.038Z,42.76
2018-10-12T14:23:11.639Z,42.43
2018-10-12T14:25:40.947Z,41.79
2018-10-12T14:28:10.423Z,42.16
2018-10-12T14:30:39.827Z,42.38
2018-10-12T14:33:09.268Z,42.36
2018-10-12T14:35:38.672Z,42.46
2018-10-12T14:38:07.990Z,42.93
2018-10-12T14:40:38.284Z,43.15
2018-10-12T14:43:07.633Z,43.42
2018-10-12T14:45:36.918Z,43.67
2018-10-12T14:48:06.286Z,44.73
2018-10-12T14:50:35.629Z,45.36
2018-10-12T14:53:05.029Z,45.44
2018-10-12T14:55:34.276Z,45.49
2018-10-12T14:58:04.629Z,45.38
2018-10-12T15:00:33.933Z,45.09
2018-10-12T15:03:03.602Z,45.09
2018-10-12T15:05:32.937Z,45.37
2018-10-12T15:08:02.369Z,45.61
2018-10-12T15:10:31.708Z,45.10
2018-10-12T15:13:01.241Z,45.14
2018-10-12T15:15:30.562Z,45.81
2018-10-12T15:18:00.273Z,46.15
2018-10-12T15:20:29.578Z,45.98
2018-10-12T15:22:59.054Z,46.41
2018-10-12T15:25:28.379Z,46.54
2018-10-12T15:27:57.681Z,46.81
2018-10-12T15:30:27.074Z,47.67
2018-10-12T15:32:56.487Z,47.40
2018-10-12T15:35:25.962Z,47.43
2018-10-12T15:37:55.388Z,47.51
2018-10-12T15:40:25.186Z,48.00
2018-10-12T15:42:54.775Z,47.79
2018-10-12T15:45:24.403Z,48.10
2018-10-12T15:47:53.898Z,48.66
2018-10-12T15:50:23.342Z,48.50
2018-10-12T15:52:52.918Z,48.74
2018-10-12T15:55:22.505Z,49.36
2018-10-12T15:57:52.023Z,49.76
2018-10-12T16:00:21.697Z,50.26
2018-10-12T16:02:51.266Z,50.21
2018-10-12T16:05:20.885Z,50.69
2018-10-12T16:07:50.964Z,51.13
2018-10-12T16:10:20.658Z,51.46
2018-10-12T16:12:50.202Z,52.03
2018-10-12T16:15:19.942Z,52.16
2018-10-12T16:17:49.392Z,52.80
2018-10-12T16:20:19.869Z,52.65
2018-10-12T16:22:49.341Z,53.83
2018-10-12T16:26:08.697Z,54.55
2018-10-12T16:28:38.029Z,56.13
2018-10-12T16:31:07.334Z,56.78
2018-10-12T16:33:36.582Z,58.47
2018-10-12T16:36:05.951Z,59.45
2018-10-12T16:38:35.262Z,59.62
2018-10-12T16:41:04.539Z,59.76
2018-10-12T16:43:33.831Z,60.00
2018-10-12T16:46:03.230Z,60.50
2018-10-12T16:48:32.901Z,62.19
2018-10-12T16:51:02.247Z,63.32
2018-10-12T16:53:31.551Z,64.25
2018-10-12T16:56:00.923Z,64.80
2018-10-12T16:58:30.297Z,64.91
2018-10-12T17:00:59.675Z,64.56
2018-10-12T17:03:29.305Z,64.56
2018-10-12T17:05:58.706Z,66.31
2018-10-12T17:08:28.062Z,66.42
2018-10-12T17:10:57.417Z,66.66
2018-10-12T17:13:26.896Z,67.14
2018-10-12T17:15:56.350Z,67.59
2018-10-12T17:18:25.954Z,67.74
2018-10-12T17:20:55.370Z,68.11
2018-10-12T17:23:25.052Z,69.67
2018-10-12T17:25:54.550Z,69.77
2018-10-12T17:28:24.281Z,70.73
2018-10-12T17:30:54.123Z,70.88
2018-10-12T17:33:23.919Z,70.78
2018-10-12T17:35:54.160Z,71.68
2018-10-12T17:38:23.666Z,72.20
2018-10-12T17:40:53.163Z,72.63
2018-10-12T17:43:22.747Z,72.29
2018-10-12T17:45:52.232Z,72.24
2018-10-12T17:48:21.690Z,71.91
2018-10-12T17:50:51.218Z,72.65
2018-10-12T17:53:20.746Z,72.65
2018-10-12T17:55:50.275Z,72.67
2018-10-12T17:58:19.666Z,72.54
2018-10-12T18:00:49.092Z,73.39
2018-10-12T18:03:18.478Z,74.49
2018-10-12T18:05:47.786Z,74.62
2018-10-12T18:08:18.751Z,74.31
2018-10-12T18:10:49.094Z,74.47
2018-10-12T18:13:18.737Z,73.96
2018-10-12T18:15:48.248Z,73.62
2018-10-12T18:18:17.722Z,73.91
2018-10-12T18:20:47.133Z,72.31
2018-10-12T18:23:16.485Z,72.36
2018-10-12T18:25:45.834Z,73.15
2018-10-12T18:28:15.193Z,73.18
2018-10-12T18:30:44.493Z,74.07
2018-10-12T18:33:14.223Z,73.32
2018-10-12T18:35:43.555Z,74.14
2018-10-12T18:38:12.970Z,73.77
2018-10-12T18:40:42.354Z,73.97
2018-10-12T18:43:12.098Z,73.08
2018-10-12T18:45:41.427Z,72.54
2018-10-12T18:48:10.733Z,72.30
2018-10-12T18:50:40.134Z,73.29
2018-10-12T18:53:09.440Z,73.27
2018-10-12T18:55:39.069Z,72.17
2018-10-12T18:58:08.807Z,72.59
2018-10-12T19:00:38.384Z,72.83
2018-10-12T19:03:07.724Z,71.32
2018-10-12T19:05:37.796Z,71.24
2018-10-12T19:08:07.239Z,72.42
2018-10-12T19:10:36.754Z,72.69
2018-10-12T19:13:06.170Z,72.46
2018-10-12T19:15:35.468Z,73.22
2018-10-12T19:18:04.786Z,74.26
2018-10-12T19:20:34.137Z,74.63
2018-10-12T19:23:03.432Z,75.19
2018-10-12T19:25:32.750Z,74.23
2018-10-12T19:28:02.120Z,75.00
2018-10-12T19:30:31.423Z,76.47
2018-10-12T19:33:05.193Z,77.07
2018-10-12T19:35:34.473Z,77.64
2018-10-12T19:38:03.795Z,78.02
2018-10-12T19:40:33.891Z,78.58
2018-10-12T19:43:03.743Z,78.75
2018-10-12T19:45:33.165Z,78.72
2018-10-12T19:48:02.541Z,79.95
2018-10-12T19:50:31.920Z,80.76
2018-10-12T19:53:01.268Z,81.13
2018-10-12T19:55:30.584Z,81.60
2018-10-12T19:57:59.921Z,82.19
2018-10-12T20:00:29.443Z,82.37
2018-10-12T20:02:58.896Z,82.69
2018-10-12T20:05:28.615Z,82.35
2018-10-12T20:07:57.969Z,82.54
2018-10-12T20:10:27.396Z,82.68
2018-10-12T20:12:56.999Z,82.76
2018-10-12T20:15:26.350Z,83.22
2018-10-12T20:17:56.177Z,83.74
2018-10-12T20:20:25.863Z,83.63
2018-10-12T20:22:55.290Z,83.78
2018-10-12T20:25:24.835Z,84.11
2018-10-12T20:27:54.470Z,83.90
2018-10-12T20:30:23.797Z,84.85
2018-10-12T20:32:53.447Z,84.57
2018-10-12T20:35:22.938Z,84.53
2018-10-12T20:37:52.463Z,84.11
2018-10-12T20:40:22.089Z,84.42
2018-10-12T20:42:51.663Z,84.79
2018-10-12T20:45:21.351Z,85.18
2018-10-12T20:47:50.831Z,85.12
2018-10-12T20:50:20.287Z,85.16
2018-10-12T20:52:49.842Z,85.95
2018-10-12T20:55:19.471Z,85.80
2018-10-12T20:57:50.084Z,84.96
2018-10-12T21:00:20.215Z,85.38
2018-10-12T21:02:49.649Z,86.18
2018-10-12T21:05:18.967Z,86.65
2018-10-12T21:07:48.507Z,86.66
2018-10-12T21:10:17.966Z,87.08
2018-10-12T21:12:47.484Z,87.49
2018-10-12T21:15:17.011Z,87.84
2018-10-12T21:17:46.380Z,88.56
2018-10-12T21:20:15.722Z,89.04
2018-10-12T21:22:45.052Z,89.26
2018-10-12T21:25:14.465Z,89.24
2018-10-12T21:27:44.062Z,89.38
2018-10-12T21:30:13.645Z,89.18
2018-10-12T21:32:43.218Z,89.66
2018-10-12T21:35:12.791Z,89.61
2018-10-12T21:37:42.429Z,89.54
2018-10-12T21:40:12.027Z,89.64
2018-10-12T21:42:41.440Z,90.28
2018-10-12T21:45:10.875Z,89.86
2018-10-12T21:47:40.412Z,89.96
2018-10-12T21:50:09.913Z,89.99
2018-10-12T21:52:39.776Z,90.32
2018-10-12T21:55:09.170Z,90.31
2018-10-12T21:57:38.460Z,91.07
2018-10-12T22:00:07.934Z,91.20
2018-10-12T22:02:37.270Z,90.45
2018-10-12T22:05:06.578Z,90.54
2018-10-12T22:07:35.854Z,90.10
2018-10-12T22:10:05.463Z,89.77
2018-10-12T22:12:34.816Z,89.67
2018-10-12T22:15:04.159Z,89.74
2018-10-12T22:17:33.445Z,90.83
2018-10-12T22:20:02.753Z,90.58
2018-10-12T22:22:32.064Z,90.83
2018-10-12T22:25:01.389Z,91.54
2018-10-12T22:27:30.840Z,91.65
2018-10-12T22:30:00.191Z,91.71
2018-10-12T22:32:29.537Z,92.20
2018-10-12T22:34:59.094Z,92.60
2018-10-12T22:37:28.716Z,91.87
2018-10-12T22:39:58.536Z,92.36
2018-10-12T22:42:28.135Z,92.64
2018-10-12T22:44:58.009Z,92.87
2018-10-12T22:47:27.614Z,92.99
2018-10-12T22:49:57.396Z,93.36
2018-10-12T22:52:27.000Z,94.05
2018-10-12T22:54:56.834Z,93.49
2018-10-12T22:57:26.680Z,94.27
2018-10-12T22:59:56.686Z,94.06
2018-10-12T23:02:26.548Z,94.45
2018-10-12T23:04:56.436Z,94.58
2018-10-12T23:07:26.344Z,94.17
2018-10-12T23:09:56.231Z,92.51
2018-10-12T23:12:26.061Z,91.61
2018-10-12T23:14:55.915Z,91.56
2018-10-12T23:17:25.658Z,91.32
2018-10-12T23:19:55.491Z,91.64
2018-10-12T23:22:25.449Z,93.02
2018-10-12T23:24:55.473Z,93.59
2018-10-12T23:27:25.389Z,94.17
2018-10-12T23:29:55.397Z,94.65
2018-10-12T23:32:25.262Z,95.71
2018-10-12T23:34:55.176Z,95.86
2018-10-12T23:37:25.067Z,96.39
2018-10-12T23:39:55.219Z,96.72
2018-10-12T23:42:25.336Z,96.80
2018-10-12T23:44:55.595Z,97.30
2018-10-12T23:47:25.572Z,98.18
2018-10-12T23:49:55.282Z,97.69
2018-10-12T23:52:24.993Z,98.28
2018-10-12T23:54:54.869Z,97.82
2018-10-12T23:57:24.788Z,98.30
2018-10-12T23:59:54.740Z,98.09
